bpm-power.com alexa rank chart, bpm-power.com alexa rank daily changes

bpm-power.com alexa rank chart, bpm-power.com alexa rank daily changes

bpm-power.com
Actual rank:
35 301

RANK HISTORY

Date Rank Diff
2018/02/23 35 301 +3 459
2018/02/22 31 842 -1 914
2018/02/21 33 756 -226 419
2018/02/20 260 175 +191 410
2018/02/19 68 765 -18 061
2018/02/18 86 826 +38 408
2018/02/17 48 418 -20 607
2018/02/16 69 025 +28 679
2018/02/15 40 346 +7 552
2018/02/14 32 794 -132 613
2018/02/13 165 407 +91 442
2018/02/12 73 965 +3 381
2018/02/11 70 584 +18 581
2018/02/10 52 003 +15 257
2018/02/09 36 746 -23 535
2018/02/08 60 281 +22 097
2018/02/07 38 184 -137 479
2018/02/06 175 663 +3 402
2018/02/05 172 261 +80 803
2018/02/04 91 458 +53 705
2018/02/03 37 753 -14 591
2018/02/02 52 344 -12 954
2018/02/01 65 298 -7 444
2018/01/31 72 742 +21 618
2018/01/30 51 124 +1 083
2018/01/29 50 041 +293
2018/01/28 49 748 -1 023
2018/01/27 50 771 -539
2018/01/26 51 310 -989
2018/01/25 52 299 -1 529
2018/01/24 53 828 -1 486
2018/01/23 55 314 +679
2018/01/22 54 635 +1 056
2018/01/21 53 579 -929
2018/01/20 54 508 -1 080
2018/01/19 55 588 -1 172
2018/01/18 56 760 -1 017
2018/01/17 57 777 -113
2018/01/16 57 890 +1 976
2018/01/15 55 914 +1 080
2018/01/14 54 834 -99
2018/01/13 54 933 -924
2018/01/12 55 857 +161
2018/01/11 55 696 -1 344
2018/01/10 57 040 -38
2018/01/09 57 078 +431
2018/01/08 56 647 -972
2018/01/07 57 619 -633
2018/01/06 58 252 -256
2018/01/05 58 508 -661
2018/01/04 59 169 -783
2018/01/03 59 952 -957
2018/01/02 60 909 +295
2018/01/01 60 614 -285
2017/12/31 60 899 +97
2017/12/30 60 802 -697
2017/12/29 61 499 +2 478
2017/12/28 59 021 -108
2017/12/27 59 129 +217
2017/12/26 58 912 +3 286
2017/12/25 55 626

WIDGET FOR YOUR SITE

DOMAINS WITH THE NEAREST RANK

Domain Rank
hollywoodtuna.com 35 296
epnclick.ru 35 297
rootmygalaxy.net 35 298
mypayflex.com 35 299
sunbook.cc 35 300
bpm-power.com 35 301
sexpussynude.com 35 302
teksresourcesystem.net 35 303
thechronicleherald.ca 35 304
stadium.ru 35 305
mcleodgaming.com 35 306

DOMAINS WITH THE NEAREST RANK BY TLD .com

Domain Rank
489pro.com 35 292
designevo.com 35 293
freeshipping.com 35 294
hollywoodtuna.com 35 296
mypayflex.com 35 299
bpm-power.com 35 301
sexpussynude.com 35 302
mcleodgaming.com 35 306
duelingnexus.com 35 307
nywatchstore.com 35 309
27xz.com 35 310